createdAt,value
2019-05-17T00:04:09.849Z,7.70
2019-05-17T00:09:13.446Z,7.40
2019-05-17T00:14:17.118Z,7.23
2019-05-17T00:19:20.770Z,7.57
2019-05-17T00:24:26.465Z,7.77
2019-05-17T00:29:29.598Z,7.43
2019-05-17T00:34:33.182Z,7.20
2019-05-17T00:39:36.849Z,7.40
2019-05-17T00:44:40.533Z,7.03
2019-05-17T00:49:46.444Z,7.50
2019-05-17T00:54:50.143Z,7.50
2019-05-17T00:59:54.070Z,7.20
2019-05-17T01:04:57.663Z,7.33
2019-05-17T01:10:01.243Z,7.50
2019-05-17T01:15:09.322Z,7.37
2019-05-17T01:20:13.346Z,7.43
2019-05-17T01:25:17.533Z,6.70
2019-05-17T01:30:21.258Z,7.20
2019-05-17T01:35:26.634Z,7.30
2019-05-17T01:40:30.112Z,6.67
2019-05-17T01:45:33.701Z,7.17
2019-05-17T01:50:37.645Z,7.87
2019-05-17T01:55:41.357Z,7.40
2019-05-17T02:00:46.533Z,8.10
2019-05-17T02:05:50.726Z,8.57
2019-05-17T02:10:54.446Z,7.53
2019-05-17T02:15:58.109Z,7.10
2019-05-17T02:21:02.059Z,7.03
2019-05-17T02:26:06.795Z,7.77
2019-05-17T02:31:13.389Z,7.90
2019-05-17T02:36:16.339Z,7.67
2019-05-17T02:41:22.735Z,7.63
2019-05-17T02:46:25.299Z,8.27
2019-05-17T02:51:32.121Z,9.33
2019-05-17T02:56:34.261Z,9.10
2019-05-17T03:01:37.863Z,9.03
2019-05-17T03:06:43.921Z,8.53
2019-05-17T03:11:46.907Z,8.60
2019-05-17T03:16:53.427Z,9.87
2019-05-17T03:21:56.267Z,8.07
2019-05-17T03:27:02.838Z,8.97
2019-05-17T03:32:08.699Z,8.40
2019-05-17T03:37:16.073Z,8.50
2019-05-17T03:42:16.793Z,9.07
2019-05-17T03:47:22.666Z,9.43
2019-05-17T03:52:26.362Z,10.37
2019-05-17T03:57:32.355Z,10.57
2019-05-17T04:02:37.129Z,9.60
2019-05-17T04:07:43.427Z,9.87
2019-05-17T04:12:46.410Z,10.00
2019-05-17T04:17:52.843Z,9.73
2019-05-17T04:22:59.657Z,10.60
2019-05-17T04:28:03.580Z,10.33
2019-05-17T04:33:07.228Z,10.47
2019-05-17T04:38:12.803Z,10.17
2019-05-17T04:43:16.468Z,11.37
2019-05-17T04:48:23.586Z,10.17
2019-05-17T04:53:27.153Z,11.40
2019-05-17T04:58:33.541Z,10.90
2019-05-17T05:03:36.542Z,10.97
2019-05-17T05:08:42.544Z,10.43
2019-05-17T05:13:45.762Z,11.70
2019-05-17T05:18:51.916Z,13.63
2019-05-17T05:23:54.590Z,11.17
2019-05-17T05:28:58.172Z,12.80
2019-05-17T05:34:02.116Z,10.83
2019-05-17T05:39:07.341Z,12.60
2019-05-17T05:44:12.261Z,9.87
2019-05-17T05:49:16.442Z,9.10
2019-05-17T05:54:22.413Z,8.87
2019-05-17T05:59:25.685Z,7.67
2019-05-17T06:04:31.656Z,7.67
2019-05-17T06:09:34.641Z,8.40
2019-05-17T06:14:38.236Z,8.33
2019-05-17T06:19:42.342Z,10.00
2019-05-17T06:24:46.037Z,10.23
2019-05-17T06:29:51.552Z,10.23
2019-05-17T06:34:55.595Z,10.63
2019-05-17T06:40:02.104Z,10.70
2019-05-17T06:45:06.777Z,10.47
2019-05-17T06:50:10.726Z,10.80
2019-05-17T06:55:14.741Z,11.40
2019-05-17T07:00:23.622Z,11.23
2019-05-17T07:05:35.318Z,11.47
2019-05-17T07:10:39.903Z,10.87
2019-05-17T07:15:47.849Z,12.40
2019-05-17T07:20:50.229Z,11.70
2019-05-17T07:25:53.944Z,11.03
2019-05-17T07:30:59.665Z,12.13
2019-05-17T07:36:02.916Z,11.43
2019-05-17T07:41:06.590Z,11.23
2019-05-17T07:46:10.537Z,11.37
2019-05-17T07:51:14.499Z,12.00
2019-05-17T07:56:20.007Z,12.00
2019-05-17T08:01:23.332Z,11.97
2019-05-17T08:06:26.931Z,11.70
2019-05-17T08:11:30.895Z,12.57
2019-05-17T08:16:34.500Z,11.97
2019-05-17T08:21:39.841Z,12.00
2019-05-17T08:26:43.388Z,12.33
2019-05-17T08:31:46.981Z,12.23
2019-05-17T08:36:50.598Z,11.73
2019-05-17T08:41:54.206Z,11.17
2019-05-17T08:46:59.513Z,12.57
2019-05-17T08:52:03.156Z,11.80
2019-05-17T08:57:06.748Z,12.17
2019-05-17T09:02:10.923Z,11.17
2019-05-17T09:07:14.525Z,11.93
2019-05-17T09:12:20.487Z,11.10
2019-05-17T09:17:23.452Z,12.03
2019-05-17T09:22:30.495Z,10.90
2019-05-17T09:27:32.548Z,11.63
2019-05-17T09:32:36.133Z,11.23
2019-05-17T09:37:41.290Z,12.17
2019-05-17T09:42:45.737Z,12.23
2019-05-17T09:47:50.587Z,11.97
2019-05-17T09:52:54.693Z,11.67
2019-05-17T09:58:00.240Z,12.30
2019-05-17T10:03:03.520Z,12.27
2019-05-17T10:08:07.254Z,12.87
2019-05-17T10:13:10.916Z,11.77
2019-05-17T10:18:14.577Z,13.07
2019-05-17T10:23:19.657Z,11.87
2019-05-17T10:28:23.483Z,13.27
2019-05-17T10:33:29.333Z,12.07
2019-05-17T10:38:32.714Z,12.07
2019-05-17T10:43:36.309Z,12.70
2019-05-17T10:48:41.119Z,13.23
2019-05-17T10:53:45.161Z,12.27
2019-05-17T10:58:53.113Z,11.93
2019-05-17T11:03:59.626Z,11.40
2019-05-17T11:09:06.052Z,12.53
2019-05-17T11:14:10.198Z,10.67
2019-05-17T11:19:16.050Z,10.43
2019-05-17T11:24:20.941Z,12.00
2019-05-17T11:29:26.630Z,11.33
2019-05-17T11:34:30.819Z,9.77
2019-05-17T11:39:37.833Z,11.70
2019-05-17T11:44:41.639Z,11.23
2019-05-17T11:49:45.261Z,10.70
2019-05-17T11:54:49.002Z,10.20
2019-05-17T11:59:52.674Z,10.40
2019-05-17T12:04:56.413Z,9.90
2019-05-17T12:10:00.065Z,9.37
2019-05-17T12:15:05.712Z,7.60
2019-05-17T12:20:10.112Z,8.50
2019-05-17T12:25:14.420Z,7.63
2019-05-17T12:30:18.561Z,7.10
2019-05-17T12:35:22.537Z,6.23
2019-05-17T12:40:26.599Z,7.30
2019-05-17T12:45:30.708Z,7.30
2019-05-17T12:50:34.395Z,6.40
2019-05-17T12:55:38.014Z,7.17
2019-05-17T13:00:41.975Z,7.10
2019-05-17T13:05:45.568Z,6.97
2019-05-17T13:10:49.563Z,5.80
2019-05-17T13:15:53.604Z,5.20
2019-05-17T13:20:57.192Z,6.23
2019-05-17T13:26:00.928Z,5.37
2019-05-17T13:31:04.655Z,4.83
2019-05-17T13:36:08.363Z,4.00
2019-05-17T13:41:12.426Z,3.97
2019-05-17T13:46:16.456Z,3.87
2019-05-17T13:51:20.220Z,3.10
2019-05-17T13:56:23.817Z,3.33
2019-05-17T14:01:27.773Z,4.10
2019-05-17T14:06:31.412Z,3.50
2019-05-17T14:11:36.973Z,3.33
2019-05-17T14:16:40.497Z,3.30
2019-05-17T14:21:44.097Z,3.20
2019-05-17T14:26:47.687Z,3.60
2019-05-17T14:31:51.700Z,3.53
2019-05-17T14:36:55.353Z,2.70
2019-05-17T14:41:58.981Z,3.07
2019-05-17T14:47:02.584Z,2.73
2019-05-17T14:52:06.211Z,2.67
2019-05-17T14:57:09.856Z,3.40
2019-05-17T15:02:13.461Z,3.40
2019-05-17T15:07:17.115Z,3.57
2019-05-17T15:12:28.405Z,3.97
2019-05-17T15:17:26.034Z,4.03
2019-05-17T15:22:29.761Z,3.80
2019-05-17T15:27:33.365Z,3.13
2019-05-17T15:32:37.091Z,3.00
2019-05-17T15:37:40.680Z,3.27
2019-05-17T15:42:44.917Z,3.10
2019-05-17T15:47:48.689Z,3.67
2019-05-17T15:52:52.567Z,3.70
2019-05-17T15:57:56.229Z,3.23
2019-05-17T16:02:59.818Z,3.07
2019-05-17T16:08:03.437Z,3.30
2019-05-17T16:13:07.113Z,3.27
2019-05-17T16:18:10.702Z,3.27
2019-05-17T16:23:14.713Z,3.77
2019-05-17T16:28:18.700Z,4.03
2019-05-17T16:33:22.304Z,3.40
2019-05-17T16:38:26.253Z,3.40
2019-05-17T16:43:30.370Z,3.57
2019-05-17T16:48:34.022Z,3.20
2019-05-17T16:53:38.129Z,3.30
2019-05-17T16:58:42.155Z,3.60
2019-05-17T17:03:45.766Z,4.50
2019-05-17T17:08:49.359Z,4.30
2019-05-17T17:13:52.938Z,4.53
2019-05-17T17:18:56.607Z,4.83
2019-05-17T17:24:00.638Z,4.63
2019-05-17T17:29:04.698Z,4.77
2019-05-17T17:34:08.403Z,4.60
2019-05-17T17:39:12.368Z,3.93
2019-05-17T17:44:15.961Z,5.70
2019-05-17T17:49:19.550Z,3.73
2019-05-17T17:54:23.157Z,4.23
2019-05-17T17:59:26.834Z,4.10
2019-05-17T18:04:30.699Z,4.20
2019-05-17T18:09:34.398Z,4.10
2019-05-17T18:14:38.081Z,4.37
2019-05-17T18:19:41.801Z,4.60
2019-05-17T18:24:45.433Z,4.20
2019-05-17T18:29:49.162Z,5.53
2019-05-17T18:34:52.760Z,4.30
2019-05-17T18:39:56.762Z,3.80
2019-05-17T18:45:00.689Z,4.07
2019-05-17T18:50:05.317Z,4.70
2019-05-17T18:55:09.445Z,3.50
2019-05-17T19:00:13.283Z,3.00
2019-05-17T19:05:17.524Z,3.30
2019-05-17T19:10:22.672Z,3.67
2019-05-17T19:15:26.353Z,3.57
2019-05-17T19:20:30.109Z,3.40
2019-05-17T19:25:34.181Z,3.03
2019-05-17T19:30:38.105Z,2.70
2019-05-17T19:35:41.696Z,2.80
2019-05-17T19:40:45.426Z,3.20
2019-05-17T19:45:48.945Z,3.17
2019-05-17T19:50:52.809Z,3.50
2019-05-17T19:55:56.730Z,3.00
2019-05-17T20:01:00.385Z,3.10
2019-05-17T20:06:04.094Z,3.13
2019-05-17T20:11:08.212Z,2.83
2019-05-17T20:16:13.054Z,3.03
2019-05-17T20:21:16.642Z,2.73
2019-05-17T20:26:20.310Z,3.10
2019-05-17T20:31:23.969Z,3.17
2019-05-17T20:36:27.583Z,4.03
2019-05-17T20:41:31.198Z,3.27
2019-05-17T20:46:34.778Z,3.60
2019-05-17T20:51:38.419Z,4.50
2019-05-17T20:56:42.080Z,3.67
2019-05-17T21:01:45.677Z,4.00
2019-05-17T21:06:49.271Z,3.97
2019-05-17T21:11:53.200Z,3.53
2019-05-17T21:16:57.141Z,4.13
2019-05-17T21:22:01.557Z,9.97
2019-05-17T21:27:05.234Z,6.73
2019-05-17T21:32:08.828Z,12.90
2019-05-17T21:37:12.504Z,9.77
2019-05-17T21:42:16.109Z,13.77
2019-05-17T21:47:19.701Z,7.07
2019-05-17T21:52:23.923Z,4.37
2019-05-17T21:57:27.584Z,3.27
2019-05-17T22:02:31.418Z,2.87
2019-05-17T22:07:35.145Z,5.10
2019-05-17T22:12:38.743Z,5.63
2019-05-17T22:17:45.441Z,5.70
2019-05-17T22:22:49.037Z,3.07
2019-05-17T22:27:52.633Z,3.40
2019-05-17T22:32:56.220Z,3.73
2019-05-17T22:37:59.812Z,3.37
2019-05-17T22:43:03.414Z,3.20
2019-05-17T22:48:07.079Z,3.70
2019-05-17T22:53:10.723Z,3.23
2019-05-17T22:58:14.309Z,3.23
2019-05-17T23:03:18.318Z,3.50
2019-05-17T23:08:22.255Z,4.60
2019-05-17T23:13:26.294Z,3.80
2019-05-17T23:18:34.338Z,3.27
2019-05-17T23:23:38.356Z,3.60
2019-05-17T23:28:42.363Z,3.17
2019-05-17T23:33:45.945Z,3.90
2019-05-17T23:38:49.680Z,3.47
2019-05-17T23:43:53.755Z,3.47
2019-05-17T23:48:57.883Z,3.80
2019-05-17T23:54:01.488Z,4.53
2019-05-17T23:59:05.653Z,4.43
